sensor_id;sensor_type;location;lat;lon;timestamp;P1;durP1;ratioP1;P2;durP2;ratioP2
33162;SDS011;29282;45.656;11.302;2024-02-23T00:01:07;4.57;;;3.50;;
33162;SDS011;29282;45.656;11.302;2024-02-23T00:03:33;3.78;;;3.22;;
33162;SDS011;29282;45.656;11.302;2024-02-23T00:06:02;5.88;;;3.72;;
33162;SDS011;29282;45.656;11.302;2024-02-23T00:08:27;4.95;;;3.60;;
33162;SDS011;29282;45.656;11.302;2024-02-23T00:10:53;7.20;;;3.38;;
33162;SDS011;29282;45.656;11.302;2024-02-23T00:13:18;5.88;;;3.67;;
33162;SDS011;29282;45.656;11.302;2024-02-23T00:15:46;4.00;;;3.25;;
33162;SDS011;29282;45.656;11.302;2024-02-23T00:18:12;3.65;;;3.25;;
33162;SDS011;29282;45.656;11.302;2024-02-23T00:20:39;5.15;;;3.30;;
33162;SDS011;29282;45.656;11.302;2024-02-23T00:23:05;3.83;;;3.35;;
33162;SDS011;29282;45.656;11.302;2024-02-23T00:25:30;3.42;;;3.13;;
33162;SDS011;29282;45.656;11.302;2024-02-23T00:27:56;4.50;;;3.28;;
33162;SDS011;29282;45.656;11.302;2024-02-23T00:30:22;4.95;;;3.22;;
33162;SDS011;29282;45.656;11.302;2024-02-23T00:32:47;3.45;;;3.15;;
33162;SDS011;29282;45.656;11.302;2024-02-23T00:35:13;3.72;;;3.20;;
33162;SDS011;29282;45.656;11.302;2024-02-23T00:37:38;4.15;;;3.30;;
33162;SDS011;29282;45.656;11.302;2024-02-23T00:40:04;4.65;;;3.45;;
33162;SDS011;29282;45.656;11.302;2024-02-23T00:42:30;4.28;;;3.22;;
33162;SDS011;29282;45.656;11.302;2024-02-23T00:44:56;4.78;;;3.28;;
33162;SDS011;29282;45.656;11.302;2024-02-23T00:47:22;3.55;;;3.25;;
33162;SDS011;29282;45.656;11.302;2024-02-23T00:49:47;3.50;;;3.20;;
33162;SDS011;29282;45.656;11.302;2024-02-23T00:52:13;3.85;;;3.17;;
33162;SDS011;29282;45.656;11.302;2024-02-23T00:54:39;3.33;;;3.00;;
33162;SDS011;29282;45.656;11.302;2024-02-23T00:57:05;4.22;;;3.20;;
33162;SDS011;29282;45.656;11.302;2024-02-23T00:59:30;3.92;;;3.15;;
33162;SDS011;29282;45.656;11.302;2024-02-23T01:01:56;3.38;;;3.08;;
33162;SDS011;29282;45.656;11.302;2024-02-23T01:04:22;3.30;;;3.00;;
33162;SDS011;29282;45.656;11.302;2024-02-23T01:06:47;4.43;;;2.97;;
33162;SDS011;29282;45.656;11.302;2024-02-23T01:09:13;3.53;;;2.90;;
33162;SDS011;29282;45.656;11.302;2024-02-23T01:11:41;2.92;;;2.60;;
33162;SDS011;29282;45.656;11.302;2024-02-23T01:14:06;3.45;;;3.00;;
33162;SDS011;29282;45.656;11.302;2024-02-23T01:16:32;5.50;;;3.15;;
33162;SDS011;29282;45.656;11.302;2024-02-23T01:18:58;4.43;;;2.80;;
33162;SDS011;29282;45.656;11.302;2024-02-23T01:21:28;4.13;;;3.15;;
33162;SDS011;29282;45.656;11.302;2024-02-23T01:23:53;4.68;;;3.13;;
33162;SDS011;29282;45.656;11.302;2024-02-23T01:26:19;3.20;;;2.90;;
33162;SDS011;29282;45.656;11.302;2024-02-23T01:28:45;4.22;;;3.05;;
33162;SDS011;29282;45.656;11.302;2024-02-23T01:31:11;3.83;;;3.45;;
33162;SDS011;29282;45.656;11.302;2024-02-23T01:33:37;4.72;;;2.83;;
33162;SDS011;29282;45.656;11.302;2024-02-23T01:36:07;3.78;;;2.90;;
33162;SDS011;29282;45.656;11.302;2024-02-23T01:38:32;3.63;;;2.70;;
33162;SDS011;29282;45.656;11.302;2024-02-23T01:40:58;3.58;;;3.10;;
33162;SDS011;29282;45.656;11.302;2024-02-23T01:43:24;3.28;;;2.95;;
33162;SDS011;29282;45.656;11.302;2024-02-23T01:45:50;3.15;;;2.65;;
33162;SDS011;29282;45.656;11.302;2024-02-23T01:48:16;3.20;;;2.90;;
33162;SDS011;29282;45.656;11.302;2024-02-23T01:50:42;5.13;;;3.00;;
33162;SDS011;29282;45.656;11.302;2024-02-23T01:53:09;5.22;;;2.92;;
33162;SDS011;29282;45.656;11.302;2024-02-23T01:55:37;2.92;;;2.72;;
33162;SDS011;29282;45.656;11.302;2024-02-23T01:58:06;3.22;;;2.65;;
33162;SDS011;29282;45.656;11.302;2024-02-23T02:00:32;3.35;;;2.47;;
33162;SDS011;29282;45.656;11.302;2024-02-23T02:02:59;3.30;;;2.80;;
33162;SDS011;29282;45.656;11.302;2024-02-23T02:05:25;4.55;;;2.78;;
33162;SDS011;29282;45.656;11.302;2024-02-23T02:07:51;3.45;;;2.92;;
33162;SDS011;29282;45.656;11.302;2024-02-23T02:10:19;3.00;;;2.70;;
33162;SDS011;29282;45.656;11.302;2024-02-23T02:12:46;3.30;;;2.45;;
33162;SDS011;29282;45.656;11.302;2024-02-23T02:15:11;4.10;;;2.92;;
33162;SDS011;29282;45.656;11.302;2024-02-23T02:17:37;2.72;;;2.38;;
33162;SDS011;29282;45.656;11.302;2024-02-23T02:20:03;3.45;;;2.83;;
33162;SDS011;29282;45.656;11.302;2024-02-23T02:22:32;3.15;;;2.70;;
33162;SDS011;29282;45.656;11.302;2024-02-23T02:24:58;2.90;;;2.50;;
33162;SDS011;29282;45.656;11.302;2024-02-23T02:27:24;2.85;;;2.50;;
33162;SDS011;29282;45.656;11.302;2024-02-23T02:29:50;4.57;;;2.90;;
33162;SDS011;29282;45.656;11.302;2024-02-23T02:32:16;2.95;;;2.65;;
33162;SDS011;29282;45.656;11.302;2024-02-23T02:34:42;2.78;;;2.40;;
33162;SDS011;29282;45.656;11.302;2024-02-23T02:37:07;2.78;;;2.58;;
33162;SDS011;29282;45.656;11.302;2024-02-23T02:39:33;4.50;;;2.67;;
33162;SDS011;29282;45.656;11.302;2024-02-23T02:41:59;4.95;;;2.80;;
33162;SDS011;29282;45.656;11.302;2024-02-23T02:44:25;3.85;;;2.25;;
33162;SDS011;29282;45.656;11.302;2024-02-23T02:46:51;2.63;;;2.42;;
33162;SDS011;29282;45.656;11.302;2024-02-23T02:49:17;2.92;;;2.60;;
33162;SDS011;29282;45.656;11.302;2024-02-23T02:51:42;2.70;;;2.50;;
33162;SDS011;29282;45.656;11.302;2024-02-23T02:54:10;2.60;;;2.40;;
33162;SDS011;29282;45.656;11.302;2024-02-23T02:56:35;2.75;;;2.47;;
33162;SDS011;29282;45.656;11.302;2024-02-23T02:59:01;2.70;;;2.50;;
33162;SDS011;29282;45.656;11.302;2024-02-23T03:01:26;3.38;;;2.50;;
33162;SDS011;29282;45.656;11.302;2024-02-23T03:03:52;2.55;;;2.33;;
33162;SDS011;29282;45.656;11.302;2024-02-23T03:06:17;2.70;;;2.50;;
33162;SDS011;29282;45.656;11.302;2024-02-23T03:08:46;2.45;;;2.20;;
33162;SDS011;29282;45.656;11.302;2024-02-23T03:11:11;2.55;;;2.35;;
33162;SDS011;29282;45.656;11.302;2024-02-23T03:13:37;2.63;;;2.42;;
33162;SDS011;29282;45.656;11.302;2024-02-23T03:16:02;2.55;;;2.35;;
33162;SDS011;29282;45.656;11.302;2024-02-23T03:18:28;2.70;;;2.50;;
33162;SDS011;29282;45.656;11.302;2024-02-23T03:20:54;3.30;;;2.25;;
33162;SDS011;29282;45.656;11.302;2024-02-23T03:23:20;2.60;;;2.28;;
33162;SDS011;29282;45.656;11.302;2024-02-23T03:25:46;3.08;;;2.40;;
33162;SDS011;29282;45.656;11.302;2024-02-23T03:28:11;2.63;;;2.42;;
33162;SDS011;29282;45.656;11.302;2024-02-23T03:30:37;2.42;;;2.20;;
33162;SDS011;29282;45.656;11.302;2024-02-23T03:33:02;2.50;;;2.30;;
33162;SDS011;29282;45.656;11.302;2024-02-23T03:35:28;3.75;;;2.28;;
33162;SDS011;29282;45.656;11.302;2024-02-23T03:37:54;2.83;;;2.20;;
33162;SDS011;29282;45.656;11.302;2024-02-23T03:42:54;3.63;;;2.33;;
33162;SDS011;29282;45.656;11.302;2024-02-23T03:45:20;2.35;;;2.13;;
33162;SDS011;29282;45.656;11.302;2024-02-23T03:47:45;2.80;;;2.20;;
33162;SDS011;29282;45.656;11.302;2024-02-23T03:50:11;2.40;;;2.20;;
33162;SDS011;29282;45.656;11.302;2024-02-23T03:52:36;2.38;;;2.17;;
33162;SDS011;29282;45.656;11.302;2024-02-23T03:55:02;2.63;;;2.30;;
33162;SDS011;29282;45.656;11.302;2024-02-23T03:57:28;2.95;;;2.40;;
33162;SDS011;29282;45.656;11.302;2024-02-23T03:59:54;3.85;;;2.40;;
33162;SDS011;29282;45.656;11.302;2024-02-23T04:02:20;3.22;;;2.20;;
33162;SDS011;29282;45.656;11.302;2024-02-23T04:04:47;2.83;;;2.25;;
33162;SDS011;29282;45.656;11.302;2024-02-23T04:07:13;2.17;;;2.05;;
33162;SDS011;29282;45.656;11.302;2024-02-23T04:09:39;3.17;;;2.10;;
33162;SDS011;29282;45.656;11.302;2024-02-23T04:12:04;2.30;;;2.10;;
33162;SDS011;29282;45.656;11.302;2024-02-23T04:14:32;3.00;;;2.20;;
33162;SDS011;29282;45.656;11.302;2024-02-23T04:17:01;2.35;;;2.15;;
33162;SDS011;29282;45.656;11.302;2024-02-23T04:19:27;2.08;;;1.92;;
33162;SDS011;29282;45.656;11.302;2024-02-23T04:21:52;2.10;;;1.90;;
33162;SDS011;29282;45.656;11.302;2024-02-23T04:24:18;2.33;;;2.13;;
33162;SDS011;29282;45.656;11.302;2024-02-23T04:26:43;2.00;;;1.90;;
33162;SDS011;29282;45.656;11.302;2024-02-23T04:29:09;2.25;;;2.05;;
33162;SDS011;29282;45.656;11.302;2024-02-23T04:31:36;2.72;;;2.00;;
33162;SDS011;29282;45.656;11.302;2024-02-23T04:34:02;2.03;;;1.83;;
33162;SDS011;29282;45.656;11.302;2024-02-23T04:36:27;3.05;;;1.80;;
33162;SDS011;29282;45.656;11.302;2024-02-23T04:38:53;2.42;;;2.08;;
33162;SDS011;29282;45.656;11.302;2024-02-23T04:41:19;2.15;;;1.95;;
33162;SDS011;29282;45.656;11.302;2024-02-23T04:43:49;2.60;;;2.20;;
33162;SDS011;29282;45.656;11.302;2024-02-23T04:46:15;2.17;;;1.80;;
33162;SDS011;29282;45.656;11.302;2024-02-23T04:48:41;2.33;;;2.13;;
33162;SDS011;29282;45.656;11.302;2024-02-23T04:51:06;2.22;;;2.03;;
33162;SDS011;29282;45.656;11.302;2024-02-23T04:53:37;2.75;;;2.15;;
33162;SDS011;29282;45.656;11.302;2024-02-23T04:56:03;2.10;;;1.90;;
33162;SDS011;29282;45.656;11.302;2024-02-23T04:58:29;2.17;;;1.98;;
33162;SDS011;29282;45.656;11.302;2024-02-23T05:00:55;2.08;;;1.88;;
33162;SDS011;29282;45.656;11.302;2024-02-23T05:03:20;2.00;;;1.80;;
33162;SDS011;29282;45.656;11.302;2024-02-23T05:05:46;2.15;;;1.98;;
33162;SDS011;29282;45.656;11.302;2024-02-23T05:08:12;2.20;;;2.00;;
33162;SDS011;29282;45.656;11.302;2024-02-23T05:10:37;2.63;;;2.13;;
33162;SDS011;29282;45.656;11.302;2024-02-23T05:13:03;2.17;;;1.90;;
33162;SDS011;29282;45.656;11.302;2024-02-23T05:15:28;1.77;;;1.67;;
33162;SDS011;29282;45.656;11.302;2024-02-23T05:17:54;1.90;;;1.70;;
33162;SDS011;29282;45.656;11.302;2024-02-23T05:20:19;1.80;;;1.70;;
33162;SDS011;29282;45.656;11.302;2024-02-23T05:22:45;2.28;;;2.08;;
33162;SDS011;29282;45.656;11.302;2024-02-23T05:25:11;2.78;;;1.63;;
33162;SDS011;29282;45.656;11.302;2024-02-23T05:27:36;2.65;;;2.08;;
33162;SDS011;29282;45.656;11.302;2024-02-23T05:30:02;1.85;;;1.75;;
33162;SDS011;29282;45.656;11.302;2024-02-23T05:32:28;1.92;;;1.65;;
33162;SDS011;29282;45.656;11.302;2024-02-23T05:34:54;2.00;;;1.90;;
33162;SDS011;29282;45.656;11.302;2024-02-23T05:37:21;1.70;;;1.60;;
33162;SDS011;29282;45.656;11.302;2024-02-23T05:39:47;2.30;;;2.10;;
33162;SDS011;29282;45.656;11.302;2024-02-23T05:42:12;2.13;;;1.88;;
33162;SDS011;29282;45.656;11.302;2024-02-23T05:44:38;2.10;;;1.90;;
33162;SDS011;29282;45.656;11.302;2024-02-23T05:47:04;1.85;;;1.75;;
33162;SDS011;29282;45.656;11.302;2024-02-23T05:49:30;1.70;;;1.60;;
33162;SDS011;29282;45.656;11.302;2024-02-23T05:51:55;1.70;;;1.60;;
33162;SDS011;29282;45.656;11.302;2024-02-23T05:54:21;2.45;;;1.90;;
33162;SDS011;29282;45.656;11.302;2024-02-23T05:56:46;1.85;;;1.73;;
33162;SDS011;29282;45.656;11.302;2024-02-23T05:59:12;1.98;;;1.77;;
33162;SDS011;29282;45.656;11.302;2024-02-23T06:01:37;1.75;;;1.65;;
33162;SDS011;29282;45.656;11.302;2024-02-23T06:04:03;1.70;;;1.60;;
33162;SDS011;29282;45.656;11.302;2024-02-23T06:06:28;1.90;;;1.80;;
33162;SDS011;29282;45.656;11.302;2024-02-23T06:08:54;2.20;;;2.00;;
33162;SDS011;29282;45.656;11.302;2024-02-23T06:11:20;1.83;;;1.50;;
33162;SDS011;29282;45.656;11.302;2024-02-23T06:13:46;1.65;;;1.55;;
33162;SDS011;29282;45.656;11.302;2024-02-23T06:16:12;1.95;;;1.70;;
33162;SDS011;29282;45.656;11.302;2024-02-23T06:18:38;2.13;;;1.92;;
33162;SDS011;29282;45.656;11.302;2024-02-23T06:21:15;2.03;;;1.67;;
33162;SDS011;29282;45.656;11.302;2024-02-23T06:23:42;1.70;;;1.60;;
33162;SDS011;29282;45.656;11.302;2024-02-23T06:26:08;1.70;;;1.60;;
33162;SDS011;29282;45.656;11.302;2024-02-23T06:28:34;1.63;;;1.52;;
33162;SDS011;29282;45.656;11.302;2024-02-23T06:31:02;1.85;;;1.75;;
33162;SDS011;29282;45.656;11.302;2024-02-23T06:33:29;1.60;;;1.50;;
33162;SDS011;29282;45.656;11.302;2024-02-23T06:35:55;1.75;;;1.65;;
33162;SDS011;29282;45.656;11.302;2024-02-23T06:38:21;1.55;;;1.45;;
33162;SDS011;29282;45.656;11.302;2024-02-23T06:40:46;1.70;;;1.60;;
33162;SDS011;29282;45.656;11.302;2024-02-23T06:43:12;1.77;;;1.67;;
33162;SDS011;29282;45.656;11.302;2024-02-23T06:45:38;2.03;;;1.77;;
33162;SDS011;29282;45.656;11.302;2024-02-23T06:48:03;3.55;;;1.60;;
33162;SDS011;29282;45.656;11.302;2024-02-23T06:50:29;2.00;;;1.80;;
33162;SDS011;29282;45.656;11.302;2024-02-23T06:52:55;9.75;;;1.88;;
33162;SDS011;29282;45.656;11.302;2024-02-23T06:55:20;1.63;;;1.38;;
33162;SDS011;29282;45.656;11.302;2024-02-23T06:57:46;2.42;;;1.50;;
33162;SDS011;29282;45.656;11.302;2024-02-23T07:00:12;2.63;;;1.40;;
33162;SDS011;29282;45.656;11.302;2024-02-23T07:02:38;2.40;;;1.30;;
33162;SDS011;29282;45.656;11.302;2024-02-23T07:05:03;3.58;;;1.30;;
33162;SDS011;29282;45.656;11.302;2024-02-23T07:07:30;1.50;;;1.40;;
33162;SDS011;29282;45.656;11.302;2024-02-23T07:09:58;1.58;;;1.30;;
33162;SDS011;29282;45.656;11.302;2024-02-23T07:12:24;2.42;;;1.60;;
33162;SDS011;29282;45.656;11.302;2024-02-23T07:14:52;3.58;;;1.60;;
33162;SDS011;29282;45.656;11.302;2024-02-23T07:17:17;1.75;;;1.60;;
33162;SDS011;29282;45.656;11.302;2024-02-23T07:19:44;8.40;;;5.60;;
33162;SDS011;29282;45.656;11.302;2024-02-23T07:22:09;18.83;;;12.07;;
33162;SDS011;29282;45.656;11.302;2024-02-23T07:24:53;39.38;;;26.48;;
33162;SDS011;29282;45.656;11.302;2024-02-23T07:27:18;50.90;;;32.97;;
33162;SDS011;29282;45.656;11.302;2024-02-23T07:29:44;55.75;;;38.95;;
33162;SDS011;29282;45.656;11.302;2024-02-23T07:32:13;64.53;;;43.78;;
33162;SDS011;29282;45.656;11.302;2024-02-23T07:34:38;66.72;;;43.72;;
33162;SDS011;29282;45.656;11.302;2024-02-23T07:37:04;63.17;;;41.95;;
33162;SDS011;29282;45.656;11.302;2024-02-23T07:39:30;64.70;;;43.08;;
33162;SDS011;29282;45.656;11.302;2024-02-23T07:41:55;62.47;;;42.60;;
33162;SDS011;29282;45.656;11.302;2024-02-23T07:44:21;65.85;;;43.05;;
33162;SDS011;29282;45.656;11.302;2024-02-23T07:46:47;62.53;;;42.80;;
33162;SDS011;29282;45.656;11.302;2024-02-23T07:49:12;64.13;;;43.05;;
33162;SDS011;29282;45.656;11.302;2024-02-23T07:54:22;59.40;;;40.00;;
33162;SDS011;29282;45.656;11.302;2024-02-23T07:56:47;60.85;;;37.95;;
33162;SDS011;29282;45.656;11.302;2024-02-23T07:59:13;60.28;;;39.05;;
33162;SDS011;29282;45.656;11.302;2024-02-23T08:01:38;57.45;;;39.60;;
33162;SDS011;29282;45.656;11.302;2024-02-23T08:04:05;60.42;;;39.05;;
33162;SDS011;29282;45.656;11.302;2024-02-23T08:06:31;58.22;;;39.42;;
33162;SDS011;29282;45.656;11.302;2024-02-23T08:08:56;59.90;;;39.33;;
33162;SDS011;29282;45.656;11.302;2024-02-23T08:11:21;56.08;;;37.17;;
33162;SDS011;29282;45.656;11.302;2024-02-23T08:13:47;57.67;;;37.88;;
33162;SDS011;29282;45.656;11.302;2024-02-23T08:16:12;55.63;;;37.00;;
33162;SDS011;29282;45.656;11.302;2024-02-23T08:18:38;54.25;;;36.72;;
33162;SDS011;29282;45.656;11.302;2024-02-23T08:21:03;57.47;;;37.10;;
33162;SDS011;29282;45.656;11.302;2024-02-23T08:23:30;62.38;;;37.30;;
33162;SDS011;29282;45.656;11.302;2024-02-23T08:25:56;59.72;;;37.03;;
33162;SDS011;29282;45.656;11.302;2024-02-23T08:28:23;59.20;;;35.72;;
33162;SDS011;29282;45.656;11.302;2024-02-23T08:30:49;53.95;;;34.28;;
33162;SDS011;29282;45.656;11.302;2024-02-23T08:33:14;55.17;;;34.25;;
33162;SDS011;29282;45.656;11.302;2024-02-23T08:35:40;56.40;;;35.33;;
33162;SDS011;29282;45.656;11.302;2024-02-23T08:38:05;58.85;;;34.63;;
33162;SDS011;29282;45.656;11.302;2024-02-23T08:40:32;57.13;;;34.03;;
33162;SDS011;29282;45.656;11.302;2024-02-23T08:42:57;55.03;;;33.10;;
33162;SDS011;29282;45.656;11.302;2024-02-23T08:45:23;57.35;;;35.03;;
33162;SDS011;29282;45.656;11.302;2024-02-23T08:47:49;57.42;;;33.63;;
33162;SDS011;29282;45.656;11.302;2024-02-23T08:50:14;56.08;;;33.33;;
33162;SDS011;29282;45.656;11.302;2024-02-23T08:52:40;58.42;;;33.63;;
33162;SDS011;29282;45.656;11.302;2024-02-23T08:55:05;64.63;;;32.78;;
33162;SDS011;29282;45.656;11.302;2024-02-23T08:57:34;62.65;;;33.95;;
33162;SDS011;29282;45.656;11.302;2024-02-23T08:59:59;70.30;;;34.42;;
33162;SDS011;29282;45.656;11.302;2024-02-23T09:02:25;71.38;;;32.88;;
33162;SDS011;29282;45.656;11.302;2024-02-23T09:04:51;67.68;;;29.88;;
33162;SDS011;29282;45.656;11.302;2024-02-23T09:07:16;61.67;;;28.98;;
33162;SDS011;29282;45.656;11.302;2024-02-23T09:09:46;61.47;;;28.52;;
33162;SDS011;29282;45.656;11.302;2024-02-23T09:12:12;60.88;;;24.65;;
33162;SDS011;29282;45.656;11.302;2024-02-23T09:14:39;54.55;;;22.60;;
33162;SDS011;29282;45.656;11.302;2024-02-23T09:17:06;34.80;;;14.95;;
33162;SDS011;29282;45.656;11.302;2024-02-23T09:19:33;38.05;;;17.17;;
33162;SDS011;29282;45.656;11.302;2024-02-23T09:21:59;34.63;;;16.75;;
33162;SDS011;29282;45.656;11.302;2024-02-23T09:24:25;39.95;;;16.90;;
33162;SDS011;29282;45.656;11.302;2024-02-23T09:26:51;38.13;;;17.20;;
33162;SDS011;29282;45.656;11.302;2024-02-23T09:29:16;32.67;;;15.90;;
33162;SDS011;29282;45.656;11.302;2024-02-23T09:31:42;32.15;;;15.43;;
33162;SDS011;29282;45.656;11.302;2024-02-23T09:34:07;40.47;;;16.73;;
33162;SDS011;29282;45.656;11.302;2024-02-23T09:36:33;32.70;;;15.50;;
33162;SDS011;29282;45.656;11.302;2024-02-23T09:38:58;37.80;;;15.85;;
33162;SDS011;29282;45.656;11.302;2024-02-23T09:41:24;39.25;;;16.02;;
33162;SDS011;29282;45.656;11.302;2024-02-23T09:43:50;35.58;;;14.73;;
33162;SDS011;29282;45.656;11.302;2024-02-23T09:46:16;33.70;;;15.05;;
33162;SDS011;29282;45.656;11.302;2024-02-23T09:48:48;38.33;;;15.43;;
33162;SDS011;29282;45.656;11.302;2024-02-23T09:51:15;32.28;;;14.18;;
33162;SDS011;29282;45.656;11.302;2024-02-23T09:53:41;31.13;;;14.60;;
33162;SDS011;29282;45.656;11.302;2024-02-23T09:56:08;30.60;;;13.25;;
33162;SDS011;29282;45.656;11.302;2024-02-23T09:58:35;31.33;;;14.45;;
33162;SDS011;29282;45.656;11.302;2024-02-23T10:01:02;30.80;;;14.82;;
33162;SDS011;29282;45.656;11.302;2024-02-23T10:03:28;27.65;;;12.73;;
33162;SDS011;29282;45.656;11.302;2024-02-23T10:05:58;33.03;;;12.30;;
33162;SDS011;29282;45.656;11.302;2024-02-23T10:08:26;32.50;;;12.60;;
33162;SDS011;29282;45.656;11.302;2024-02-23T10:10:52;36.08;;;13.05;;
33162;SDS011;29282;45.656;11.302;2024-02-23T10:13:22;32.38;;;12.80;;
33162;SDS011;29282;45.656;11.302;2024-02-23T10:15:51;43.67;;;13.90;;
33162;SDS011;29282;45.656;11.302;2024-02-23T10:18:17;31.92;;;12.38;;
33162;SDS011;29282;45.656;11.302;2024-02-23T10:20:44;38.55;;;13.32;;
33162;SDS011;29282;45.656;11.302;2024-02-23T10:23:09;39.92;;;13.93;;
33162;SDS011;29282;45.656;11.302;2024-02-23T10:25:36;36.20;;;12.27;;
33162;SDS011;29282;45.656;11.302;2024-02-23T10:28:05;45.10;;;12.63;;
33162;SDS011;29282;45.656;11.302;2024-02-23T10:30:31;36.75;;;12.55;;
33162;SDS011;29282;45.656;11.302;2024-02-23T10:32:57;35.22;;;11.82;;
33162;SDS011;29282;45.656;11.302;2024-02-23T10:35:23;38.05;;;12.30;;
33162;SDS011;29282;45.656;11.302;2024-02-23T10:37:50;33.20;;;11.85;;
33162;SDS011;29282;45.656;11.302;2024-02-23T10:40:18;34.78;;;12.00;;
33162;SDS011;29282;45.656;11.302;2024-02-23T10:42:45;29.83;;;11.82;;
33162;SDS011;29282;45.656;11.302;2024-02-23T10:47:45;27.00;;;11.43;;
33162;SDS011;29282;45.656;11.302;2024-02-23T10:50:12;29.15;;;10.70;;
33162;SDS011;29282;45.656;11.302;2024-02-23T10:52:41;25.67;;;10.48;;
33162;SDS011;29282;45.656;11.302;2024-02-23T10:55:10;23.65;;;10.55;;
33162;SDS011;29282;45.656;11.302;2024-02-23T10:57:36;24.50;;;10.40;;
33162;SDS011;29282;45.656;11.302;2024-02-23T11:00:04;24.75;;;9.88;;
33162;SDS011;29282;45.656;11.302;2024-02-23T11:02:32;24.77;;;9.60;;
33162;SDS011;29282;45.656;11.302;2024-02-23T11:05:01;24.65;;;9.95;;
33162;SDS011;29282;45.656;11.302;2024-02-23T11:07:29;27.05;;;9.25;;
33162;SDS011;29282;45.656;11.302;2024-02-23T11:09:58;24.10;;;8.88;;
33162;SDS011;29282;45.656;11.302;2024-02-23T11:12:24;25.15;;;9.57;;
33162;SDS011;29282;45.656;11.302;2024-02-23T11:14:51;23.88;;;9.43;;
33162;SDS011;29282;45.656;11.302;2024-02-23T11:17:17;29.17;;;9.77;;
33162;SDS011;29282;45.656;11.302;2024-02-23T11:19:45;25.83;;;9.02;;
33162;SDS011;29282;45.656;11.302;2024-02-23T11:22:14;28.05;;;10.00;;
33162;SDS011;29282;45.656;11.302;2024-02-23T11:24:42;19.15;;;8.93;;
33162;SDS011;29282;45.656;11.302;2024-02-23T11:27:14;23.02;;;8.93;;
33162;SDS011;29282;45.656;11.302;2024-02-23T11:29:42;22.98;;;8.43;;
33162;SDS011;29282;45.656;11.302;2024-02-23T11:32:13;20.65;;;8.43;;
33162;SDS011;29282;45.656;11.302;2024-02-23T11:34:39;19.63;;;8.77;;
33162;SDS011;29282;45.656;11.302;2024-02-23T11:37:11;25.00;;;9.15;;
33162;SDS011;29282;45.656;11.302;2024-02-23T11:39:37;21.52;;;8.43;;
33162;SDS011;29282;45.656;11.302;2024-02-23T11:42:06;26.45;;;8.63;;
33162;SDS011;29282;45.656;11.302;2024-02-23T11:44:32;21.30;;;8.70;;
33162;SDS011;29282;45.656;11.302;2024-02-23T11:46:58;15.15;;;8.05;;
33162;SDS011;29282;45.656;11.302;2024-02-23T11:49:27;16.23;;;7.38;;
33162;SDS011;29282;45.656;11.302;2024-02-23T11:51:54;18.63;;;7.68;;
33162;SDS011;29282;45.656;11.302;2024-02-23T11:54:20;18.60;;;7.45;;
33162;SDS011;29282;45.656;11.302;2024-02-23T11:56:47;22.58;;;7.93;;
33162;SDS011;29282;45.656;11.302;2024-02-23T11:59:14;14.93;;;7.50;;
33162;SDS011;29282;45.656;11.302;2024-02-23T12:01:40;24.10;;;7.05;;
33162;SDS011;29282;45.656;11.302;2024-02-23T12:04:06;17.95;;;7.32;;
33162;SDS011;29282;45.656;11.302;2024-02-23T12:06:32;16.25;;;7.50;;
33162;SDS011;29282;45.656;11.302;2024-02-23T12:08:58;20.25;;;7.10;;
33162;SDS011;29282;45.656;11.302;2024-02-23T12:11:25;15.55;;;7.82;;
33162;SDS011;29282;45.656;11.302;2024-02-23T12:13:51;17.05;;;7.40;;
33162;SDS011;29282;45.656;11.302;2024-02-23T12:16:16;17.15;;;7.68;;
33162;SDS011;29282;45.656;11.302;2024-02-23T12:18:42;14.60;;;7.43;;
33162;SDS011;29282;45.656;11.302;2024-02-23T12:21:08;13.98;;;6.85;;
33162;SDS011;29282;45.656;11.302;2024-02-23T12:23:43;13.02;;;7.03;;
33162;SDS011;29282;45.656;11.302;2024-02-23T12:26:11;17.27;;;7.40;;
33162;SDS011;29282;45.656;11.302;2024-02-23T12:28:38;16.30;;;7.50;;
33162;SDS011;29282;45.656;11.302;2024-02-23T12:31:05;14.57;;;7.10;;
33162;SDS011;29282;45.656;11.302;2024-02-23T12:33:34;13.60;;;6.38;;
33162;SDS011;29282;45.656;11.302;2024-02-23T12:36:01;15.52;;;6.57;;
33162;SDS011;29282;45.656;11.302;2024-02-23T12:38:28;15.40;;;6.95;;
33162;SDS011;29282;45.656;11.302;2024-02-23T12:40:54;14.98;;;6.65;;
33162;SDS011;29282;45.656;11.302;2024-02-23T12:43:20;17.45;;;7.43;;
33162;SDS011;29282;45.656;11.302;2024-02-23T12:45:47;14.45;;;6.57;;
33162;SDS011;29282;45.656;11.302;2024-02-23T12:48:16;16.35;;;6.72;;
33162;SDS011;29282;45.656;11.302;2024-02-23T12:50:42;14.18;;;6.78;;
33162;SDS011;29282;45.656;11.302;2024-02-23T12:53:09;14.88;;;5.78;;
33162;SDS011;29282;45.656;11.302;2024-02-23T12:55:36;15.30;;;6.72;;
33162;SDS011;29282;45.656;11.302;2024-02-23T12:58:02;15.68;;;6.78;;
33162;SDS011;29282;45.656;11.302;2024-02-23T13:00:27;15.38;;;5.82;;
33162;SDS011;29282;45.656;11.302;2024-02-23T13:02:53;20.08;;;7.15;;
33162;SDS011;29282;45.656;11.302;2024-02-23T13:05:19;12.07;;;6.65;;
33162;SDS011;29282;45.656;11.302;2024-02-23T13:07:45;11.40;;;6.43;;
33162;SDS011;29282;45.656;11.302;2024-02-23T13:10:15;12.25;;;6.03;;
33162;SDS011;29282;45.656;11.302;2024-02-23T13:12:43;20.90;;;6.65;;
33162;SDS011;29282;45.656;11.302;2024-02-23T13:15:09;18.70;;;6.97;;
33162;SDS011;29282;45.656;11.302;2024-02-23T13:17:34;17.58;;;6.30;;
33162;SDS011;29282;45.656;11.302;2024-02-23T13:19:59;16.33;;;6.97;;
33162;SDS011;29282;45.656;11.302;2024-02-23T13:22:25;18.27;;;6.78;;
33162;SDS011;29282;45.656;11.302;2024-02-23T13:24:50;16.63;;;7.15;;
33162;SDS011;29282;45.656;11.302;2024-02-23T13:27:16;14.65;;;6.10;;
33162;SDS011;29282;45.656;11.302;2024-02-23T13:29:41;12.00;;;6.07;;
33162;SDS011;29282;45.656;11.302;2024-02-23T13:32:07;15.45;;;6.70;;
33162;SDS011;29282;45.656;11.302;2024-02-23T13:34:32;14.05;;;7.00;;
33162;SDS011;29282;45.656;11.302;2024-02-23T13:36:58;17.75;;;6.70;;
33162;SDS011;29282;45.656;11.302;2024-02-23T13:39:23;16.75;;;6.20;;
33162;SDS011;29282;45.656;11.302;2024-02-23T13:41:48;16.25;;;6.35;;
33162;SDS011;29282;45.656;11.302;2024-02-23T13:44:14;18.50;;;6.43;;
33162;SDS011;29282;45.656;11.302;2024-02-23T13:46:40;21.27;;;6.43;;
33162;SDS011;29282;45.656;11.302;2024-02-23T13:49:06;12.77;;;5.97;;
33162;SDS011;29282;45.656;11.302;2024-02-23T13:51:33;17.50;;;6.65;;
33162;SDS011;29282;45.656;11.302;2024-02-23T13:53:59;14.15;;;6.47;;
33162;SDS011;29282;45.656;11.302;2024-02-23T13:56:25;17.65;;;5.90;;
33162;SDS011;29282;45.656;11.302;2024-02-23T13:58:51;16.92;;;6.43;;
33162;SDS011;29282;45.656;11.302;2024-02-23T14:01:16;21.20;;;7.22;;
33162;SDS011;29282;45.656;11.302;2024-02-23T14:03:42;25.25;;;6.70;;
33162;SDS011;29282;45.656;11.302;2024-02-23T14:06:08;20.58;;;7.60;;
33162;SDS011;29282;45.656;11.302;2024-02-23T14:08:33;21.55;;;6.82;;
33162;SDS011;29282;45.656;11.302;2024-02-23T14:11:00;19.10;;;6.25;;
33162;SDS011;29282;45.656;11.302;2024-02-23T14:13:26;24.98;;;7.22;;
33162;SDS011;29282;45.656;11.302;2024-02-23T14:15:52;19.55;;;6.35;;
33162;SDS011;29282;45.656;11.302;2024-02-23T14:18:17;20.83;;;7.10;;
33162;SDS011;29282;45.656;11.302;2024-02-23T14:20:43;23.67;;;6.45;;
33162;SDS011;29282;45.656;11.302;2024-02-23T14:23:08;20.50;;;6.60;;
33162;SDS011;29282;45.656;11.302;2024-02-23T14:25:34;18.90;;;6.78;;
33162;SDS011;29282;45.656;11.302;2024-02-23T14:27:59;22.17;;;6.70;;